Tiempo atmosférico en la estación meteorológica de San Clemente, Cuenca (728 m.)



Fecha
DESCASC
Temp. máxima en grados centígrados (hora)
DESCASC
Temp. mínima en grados centígrados (hora)
DESCASC
Temp. media en grados centígrados
DESCASC
Racha de viento máxima en m/sg (hora)
DESCASC
Velocidad máxima media en intervalos de 10 minutos(hora)
DESCASC
Precipitaciones diarias en mm
DESCASC
Precipitaciones de 00:00 a 06:00 en mm
DESCASC
Precipitaciones de 06:00 a 12:00 en mm
DESCASC
Precipitaciones de 12:00 a 18:00 en mm
DESCASC
Precipitaciones de 18:00 a 24:00 en mm
DESCASC
17-09-2020 -- (--) -- (--) -- -- (--) -- (--) -- 0 0 0 --
16-09-2020 31.2 (17:10) 17.7 (08:00) 24.5 10.28 (18:30) 5.56 (18:40) 0 0 0 0 0
15-09-2020 30.3 (17:20) 16.7 (07:50) 23.5 8.33 (02:10) 3.89 (02:00) 0 0 0 0 0
14-09-2020 29.1 (15:20) 16.6 (00:00) 22.9 12.5 (13:20) 6.67 (15:00) 0.2 0 0 0 0.2
13-09-2020 31.4 (16:30) 16.6 (00:00) 24 10.83 (14:40) 6.11 (18:10) 0 0 0 0 0
12-09-2020 32.1 (16:40) 17.2 (00:00) 24.6 10.83 (15:20) 5.56 (23:40) 0 0 0 0 0
11-09-2020 32 (17:10) 13.8 (00:00) 22.9 6.94 (15:50) 3.89 (01:10) 0 0 0 0 0
10-09-2020 30.2 (17:30) 11.7 (00:00) 21 7.78 (14:20) 4.72 (18:10) 0 0 0 0 0
09-09-2020 28.5 (18:00) 11.3 (00:00) 19.9 8.33 (17:50) 5.28 (17:50) 0 0 0 0 0
08-09-2020 25.2 (16:10) 12.6 (00:00) 18.9 14.44 (16:50) 6.39 (09:20) 0 0 0 0 0
07-09-2020 28.6 (16:10) 14.3 (07:40) 21.5 10.56 (19:10) 6.67 (19:10) 0 0 0 0 0
06-09-2020 32.1 (18:20) 13.8 (00:00) 22.9 9.72 (12:50) 5 (13:10) 0 0 0 0 0
05-09-2020 32 (17:50) 14.5 (00:00) 23.3 10.56 (21:40) 5.56 (21:40) 0 0 0 0 0
04-09-2020 29.2 (17:20) 14.6 (00:00) 21.9 10 (12:40) 5.56 (13:20) 0 0 0 0 0
03-09-2020 30.7 (17:10) 15.5 (00:00) 23.1 10.28 (23:40) 4.72 (23:40) 0 0 0 0 0
02-09-2020 29.5 (16:40) 14.1 (00:00) 21.8 7.5 (09:50) 4.44 (09:50) 0 0 0 0 0
01-09-2020 28.4 (16:50) 12.4 (00:00) 20.4 6.67 (17:50) 3.61 (12:00) 0 0 0 0 0
31-08-2020 27.9 (18:40) 9.6 (00:00) 18.8 -- (--) -- (--) 0 0 0 0 0
30-08-2020 24.7 (15:50) 8.4 (00:00) 16.6 -- (--) -- (--) 0 0 0 0 0
29-08-2020 25 (16:10) 13.1 (00:00) 19.1 -- (--) -- (--) 0 0 0 0 0
28-08-2020 34.2 (17:00) 16 (00:00) 25.1 15 (18:50) 10.28 (18:40) -- 0 0 0 --
27-08-2020 37.1 (16:20) 16.4 (00:00) 26.7 8.89 (16:50) 4.72 (17:10) 0 0 0 0 0
26-08-2020 37.7 (16:30) 17.9 (00:00) 27.8 8.61 (17:40) 4.44 (19:10) 0 0 0 0 0
25-08-2020 36.7 (17:30) 18.9 (00:00) 27.8 8.61 (16:40) 4.44 (03:10) 0 0 0 0 0
24-08-2020 34.9 (17:40) 20 (00:00) 27.5 10 (09:30) 5.83 (00:10) 0 0 0 0 0
23-08-2020 34.6 (17:00) 17.9 (00:00) 26.2 11.39 (23:10) 6.11 (23:20) 0 0 0 0 0
22-08-2020 34.4 (16:50) 18.2 (00:00) 26.3 9.44 (16:00) 5.83 (18:30) 0 0 0 0 0
21-08-2020 35.1 (16:50) 15.4 (00:00) 25.2 13.06 (16:50) 7.22 (17:20) 0 0 0 0 0
20-08-2020 38 (17:40) 15.3 (00:00) 26.7 10.28 (18:00) 6.39 (18:40) 0 0 0 0 0

Gráficas

Temp. máximas Temp. mínimas Temp. medias Precipitaciones Rachas de viento máximas Velocidades máximas media en intervalos de 10 minutos

Datos horarios

Fecha y hora oficial Temperatura (ºC) Velocidad del viento (km/h) Dirección del viento Racha (km/h) Dirección de racha Precipitación (mm) Presión (hPa) Tendencia (hPa) Humedad (%)
2020-09-18 23:00:00 16.1 8 Sudoeste 17 Sudoeste 0 933.5 1.5 85
2020-09-18 22:00:00 15.8 6 Sudoeste 12 Sudoeste 0 933.2 1.2 84
2020-09-18 21:00:00 16 6 Sudoeste 18 Norte 0.2 932.2 1.1 85
2020-09-18 20:00:00 16.3 15 Nordeste -- -- 0 932 1.7 82
2020-09-18 19:00:00 17.4 15 Noroeste -- -- 0.4 932 1.4 89
2020-09-18 18:00:00 20.5 -- -- -- -- 0.2 931.1 -0.5 73
2020-09-18 17:00:00 22.4 12 Sudoeste 26 Sur 0 930.3 -2.4 60
2020-09-18 16:00:00 21.2 12 Sur -- -- 0 930.6 -1.3 66
2020-09-18 15:00:00 19.3 9 Sudeste -- -- 1.2 931.6 -- 74
2020-09-18 14:00:00 19.1 13 Noroeste -- -- -- 932.7 -- 80
2020-09-18 13:00:00 18.3 -- -- -- -- -- 931.9 -- 79
2020-09-18 12:00:00 -- -- -- -- -- -- -- -- --
2020-09-18 11:00:00 -- -- -- -- -- -- -- -- --
2020-09-18 10:00:00 -- -- -- -- -- -- -- -- --
2020-09-18 09:00:00 -- -- -- -- -- -- -- -- --
2020-09-18 08:00:00 -- -- -- -- -- -- -- -- --
2020-09-18 07:00:00 -- -- -- -- -- -- -- -- --
2020-09-18 06:00:00 -- -- -- -- -- -- -- -- --
2020-09-18 05:00:00 -- -- -- -- -- -- -- -- --
2020-09-18 04:00:00 -- -- -- -- -- -- -- -- --
2020-09-18 03:00:00 -- -- -- -- -- -- -- -- --
2020-09-18 02:00:00 -- -- -- -- -- -- -- -- --
2020-09-18 01:00:00 -- -- -- -- -- -- -- -- --
2020-09-18 00:00:00 -- -- -- -- -- -- -- -- --
2020-09-17 23:00:00 -- -- -- -- -- -- -- -- --
2020-09-17 22:00:00 -- -- -- -- -- -- -- -- --
2020-09-17 21:00:00 -- -- -- -- -- -- -- -- --
2020-09-17 20:00:00 25.2 10 Sur 26 Sudoeste 0 930.2 -- 45
2020-09-17 19:00:00 26.2 14 Sur 27 Sur 0 930.8 -- 42
2020-09-17 18:00:00 27.5 8 Sudoeste 22 Sudoeste 0 931.1 -- 38
2020-09-17 17:00:00 28.5 10 Noroeste 25 Noroeste 0 931.5 -- 36
2020-09-17 16:00:00 27.9 12 Oeste 26 Noroeste 0 932.2 -- 37
2020-09-17 15:00:00 27.1 14 Noroeste 30 Oeste 0 932.6 -- 39
2020-09-17 14:00:00 25.8 14 Noroeste 38 Oeste 0 933.1 -- 43
2020-09-17 13:00:00 24.5 14 Sudoeste 25 Sudoeste 0 933.5 -- 46
2020-09-17 12:00:00 22.7 13 Sudoeste 27 Sudoeste 0 933.8 -- 54
2020-09-17 11:00:00 21.5 14 Sudoeste 26 Sudoeste 0 934 -- 57
2020-09-17 10:00:00 20.8 14 Sudoeste 26 Sudoeste 0 933.8 -- 61
2020-09-17 09:00:00 20.1 14 Sur 24 Sudoeste 0 933.4 -- 62
2020-09-17 08:00:00 19 13 Sur 22 Sur 0 933.2 -- 68
2020-09-17 07:00:00 19.2 10 Sur 18 Sudeste 0 933 -- 63
2020-09-17 06:00:00 19.1 12 Sudeste 19 Sudeste 0 933 -- 73
2020-09-17 05:00:00 18.8 13 Sudeste 21 Sudeste 0 933.6 -- 78
2020-09-17 04:00:00 18.8 8 Sudeste 14 Norte 0 934.2 -- 80
2020-09-17 03:00:00 19.7 10 Norte 32 Norte 0 935.6 -- 72
2020-09-17 02:00:00 21.7 13 Oeste 30 Sur 0 935.5 -- 51
2020-09-17 01:00:00 22.1 17 Sudoeste 32 Sur 0 934.6 -- 47
2020-09-17 00:00:00 22.8 19 Sudoeste 36 Sur 0 934.4 -- 42
2020-09-16 23:00:00 23.6 16 Sudoeste 31 Sudoeste 0 934.3 -- 48
2020-09-16 22:00:00 24.6 15 Sudoeste 29 Sudoeste 0 933.9 -- 43
2020-09-16 21:00:00 25.7 14 Sudoeste 35 Sudoeste 0 933.4 -- 34
2020-09-16 20:00:00 27.2 17 Sudoeste 35 Oeste 0 932.9 -- 29
2020-09-16 19:00:00 28.9 17 Sudoeste 37 Sudoeste 0 933 -- 25
2020-09-16 18:00:00 30.1 17 Sudoeste 31 Sudoeste 0 933 -- 23
2020-09-16 17:00:00 30.9 18 Sudoeste 28 Sudoeste 0 933.3 -- 22
2020-09-16 16:00:00 30.2 7 Sudoeste 30 Sudoeste 0 933.9 -- 28
2020-09-16 15:00:00 30.6 13 Sudoeste 26 Oeste 0 934.7 -- 30
2020-09-16 14:00:00 29.8 9 Sudoeste 22 Sudoeste 0 935.5 -- 32
2020-09-16 13:00:00 28.1 7 Sudoeste 17 Sudoeste 0 936.2 -- 36
2020-09-16 12:00:00 26.2 8 Sudoeste 17 Sudoeste 0 936.8 -- 43
2020-09-16 11:00:00 24.3 9 Sudoeste 17 Sur 0 937 -- 48
2020-09-16 10:00:00 21.5 11 Sur 18 Sudoeste 0 937.2 -- 61
2020-09-16 09:00:00 19.3 9 Sur 15 Sudoeste 0 937.2 -- 69
2020-09-16 08:00:00 17.7 5 Sur 13 Sudoeste 0 937 -- 76
2020-09-16 07:00:00 18.2 7 Sur 18 Sur 0 936.8 -- 70
2020-09-16 06:00:00 18.6 8 Sur 17 Sur 0 936.6 -- 67
2020-09-16 05:00:00 18.9 6 Sudoeste 17 Sudoeste 0 936.7 -- 65
2020-09-16 04:00:00 20 10 Sur 19 Sudoeste 0 936.9 -- 57
2020-09-16 03:00:00 20.7 11 Sur 24 Sudoeste 0 937.1 -- 51
2020-09-16 02:00:00 21.2 11 Sudoeste 22 Sudoeste 0 937.3 -- 49
2020-09-16 01:00:00 21.8 12 Sur 23 Sur 0 937.4 -- 48
2020-09-16 00:00:00 22.3 10 Sur 19 Sur 0 937.5 -- 51
2020-09-15 23:00:00 23.1 8 Sur 14 Sudoeste 0 937.4 -- 46
2020-09-15 22:00:00 24.2 6 Sudoeste 11 Sudoeste 0 937.2 -- 42
2020-09-15 21:00:00 26 4 Sur 8 Sur 0 936.5 -- 41
2020-09-15 20:00:00 28.5 4 Oeste 11 Oeste 0 936.2 -- 36
2020-09-15 19:00:00 29.1 4 Sudoeste 14 Oeste 0 936.3 -- 35
2020-09-15 18:00:00 29.4 6 Sudeste 15 Sudoeste 0 936.4 -- 35
2020-09-15 17:00:00 29.4 7 Sudoeste 18 Oeste 0 936.6 -- 35
2020-09-15 16:00:00 28.9 6 Sudoeste 17 Sudoeste 0 937.2 -- 36
2020-09-15 15:00:00 29.2 9 Oeste 20 Oeste 0 937.9 -- 34
2020-09-15 14:00:00 27.6 9 Sudoeste 19 Oeste 0 938.5 -- 39
2020-09-15 13:00:00 26.1 7 Sudoeste 18 Sudoeste 0 939 -- 45
2020-09-15 12:00:00 25 5 Oeste 17 Sudoeste 0 939.6 -- 50
2020-09-15 11:00:00 22.9 7 Oeste 17 Oeste 0 939.8 -- 57
2020-09-15 10:00:00 20.6 11 Sudoeste 21 Sudoeste 0 939.3 -- 63
2020-09-15 09:00:00 18.5 9 Sudoeste 19 Sur 0 939.2 -- 73
2020-09-15 08:00:00 16.8 7 Sudoeste 20 Sudoeste 0 938.9 -- 79
2020-09-15 07:00:00 17.4 10 Sudoeste 21 Sudoeste 0 938.1 -- 76
2020-09-15 06:00:00 18.4 14 Sudoeste 24 Sudoeste 0 938.3 -- 72
2020-09-15 05:00:00 18.7 14 Sudoeste 26 Sur 0 938.4 -- 71
2020-09-15 04:00:00 18.4 11 Sur 26 Sur 0 938.5 -- 73
2020-09-15 03:00:00 18.9 13 Sur 30 Sur 0 938.7 -- 73
2020-09-15 02:00:00 18.7 14 Sur 26 Sur 0 938.8 -- 77
2020-09-15 01:00:00 19.1 9 Sudoeste 22 Sur 0 939.4 -- 77
2020-09-15 00:00:00 20 12 Sur 34 Sur 0 938.6 -- 69
2020-09-14 23:00:00 20.8 19 Sur 42 Sur 0.2 937.6 -- 70
2020-09-14 22:00:00 22.5 16 Sur 39 Sudoeste 0 938.3 -- 65
2020-09-14 21:00:00 25.1 18 Sudoeste 34 Sudoeste 0 937.5 -- 42
2020-09-14 20:00:00 26 13 Sudoeste 28 Sudoeste 0 937.4 -- 39
2020-09-14 19:00:00 26.6 19 Sudoeste 35 Oeste 0 937.4 -- 34
2020-09-14 18:00:00 27.3 19 Sudoeste 38 Sudoeste 0 936.9 -- 30
2020-09-14 17:00:00 27.7 22 Sudoeste 37 Sudoeste 0 937.3 -- 30
2020-09-14 16:00:00 28 17 Sudoeste 43 Oeste 0 937.7 -- 28
2020-09-14 15:00:00 28.7 24 Sudoeste 37 Sudoeste 0 938.5 -- 27
2020-09-14 14:00:00 27.9 20 Sudoeste 45 Sur 0 939 -- 32
2020-09-14 13:00:00 27.4 19 Sudoeste 44 Sur 0 939.6 -- 36
2020-09-14 12:00:00 24.9 21 Sudoeste 43 Sudoeste 0 939.9 -- 42
2020-09-14 11:00:00 22.9 22 Sudoeste 36 Sudoeste 0 940 -- 48
2020-09-14 10:00:00 21.3 19 Sur 37 Sur 0 939.8 -- 52
2020-09-14 09:00:00 19.3 13 Sur 24 Sur 0 939.7 -- 60
2020-09-14 08:00:00 16.7 11 Sur 21 Sur 0 939.4 -- 68
2020-09-14 07:00:00 17 11 Sur 22 Sur 0 939.1 -- 68
2020-09-14 06:00:00 17.6 12 Sur 29 Sur 0 939.1 -- 67
2020-09-14 05:00:00 18.1 17 Sur 29 Sur 0 939.5 -- 65
2020-09-14 04:00:00 18.1 14 Sur 23 Sur 0 939.9 -- 64
2020-09-14 03:00:00 18.6 13 Sur 25 Sur 0 940.4 -- 60
2020-09-14 02:00:00 19.3 15 Sur 24 Sur 0 940.4 -- 58
2020-09-14 01:00:00 20.5 12 Sur 21 Sur 0 940.4 -- 56
2020-09-14 00:00:00 21.3 12 Sur 22 Sur 0 940.3 -- 52
2020-09-13 23:00:00 22.3 11 Sur 23 Sur 0 940.1 -- 49
2020-09-13 22:00:00 23.7 12 Sur 24 Sudoeste 0 939.7 -- 44
2020-09-13 21:00:00 25.5 12 Sudoeste 27 Sudoeste 0 938.9 -- 38
2020-09-13 20:00:00 27.1 15 Sudoeste 31 Sudoeste 0 938.4 -- 34
2020-09-13 19:00:00 28.4 18 Sudoeste 37 Oeste 0 938.4 -- 31
2020-09-13 18:00:00 29.3 19 Sudoeste 36 Sudoeste 0 938.3 -- 28
2020-09-13 17:00:00 30.7 14 Sudoeste 35 Sudoeste 0 938.3 -- 24
2020-09-13 16:00:00 30.7 15 Sudoeste 32 Sudoeste 0 938.5 -- 24
2020-09-13 15:00:00 30 18 Sudoeste 39 Sudoeste 0 939.1 -- 27
2020-09-13 14:00:00 29.1 16 Sudoeste 36 Sudoeste 0 939.6 -- 28
2020-09-13 13:00:00 27.4 18 Sudoeste 35 Sudoeste 0 939.9 -- 32
2020-09-13 12:00:00 26.6 15 Sudoeste 31 Sudoeste 0 940.4 -- 37
2020-09-13 11:00:00 24.3 15 Sur 28 Sudoeste 0 940.3 -- 44
2020-09-13 10:00:00 22.6 16 Sur 29 Sur 0 940 -- 51
2020-09-13 09:00:00 19.8 15 Sur 23 Sudeste 0 939.8 -- 60
2020-09-13 08:00:00 16.8 13 Sudeste 18 Sudeste 0 939.2 -- 72
2020-09-13 07:00:00 16.8 11 Sudeste 20 Sudeste 0 938.9 -- 72
2020-09-13 06:00:00 17.3 12 Sudeste 21 Sur 0 938.6 -- 71
2020-09-13 05:00:00 17.8 15 Sur 23 Sudeste 0 938.5 -- 69
2020-09-13 04:00:00 18.4 12 Sur 24 Sur 0 938.5 -- 68
2020-09-13 03:00:00 19.1 12 Sur 29 Sur 0 938.4 -- 65
2020-09-13 02:00:00 20.1 16 Sur 36 Sudoeste 0 938.4 -- 64
2020-09-13 01:00:00 21.2 19 Sur 37 Sudoeste 0 938.1 -- 59
2020-09-13 00:00:00 22.7 19 Sudoeste 36 Sudoeste 0 937.8 -- 44
2020-09-12 23:00:00 23.3 15 Sudoeste 27 Sudoeste 0 937.4 -- 42
2020-09-12 22:00:00 24.2 10 Sur 23 Sudoeste 0 936.6 -- 38
2020-09-12 21:00:00 26.6 10 Sudoeste 26 Sudoeste 0 935.7 -- 30
2020-09-12 20:00:00 28.9 9 Sudoeste 25 Sudoeste 0 935.1 -- 23
2020-09-12 19:00:00 30.5 12 Sur 22 Sudoeste 0 934.7 -- 21
2020-09-12 18:00:00 31.3 8 Sudoeste 26 Sudeste 0 934.5 -- 20
2020-09-12 17:00:00 31.9 10 Sur 22 Sur 0 934.6 -- 20
2020-09-12 16:00:00 31.6 12 Sur 39 Sur 0 934.9 -- 22
2020-09-12 15:00:00 31.3 11 Sur 26 Sur 0 935.1 -- 23
2020-09-12 14:00:00 29.6 13 Sudoeste 29 Sur 0 935.6 -- 28
2020-09-12 13:00:00 28.4 14 Sudoeste 29 Sudoeste 0 935.8 -- 31
2020-09-12 12:00:00 26.6 16 Sudoeste 31 Sur 0 936 -- 34
2020-09-12 11:00:00 24.5 15 Sudoeste 30 Sur 0 935.9 -- 38
2020-09-12 10:00:00 22.3 13 Sudoeste 28 Sudoeste 0 935.6 -- 46
2020-09-12 09:00:00 19.9 11 Sur 20 Sur 0 935.3 -- 51
2020-09-12 08:00:00 17.8 7 Sur 17 Sur 0 934.7 -- 57
2020-09-12 07:00:00 17.9 8 Sur 17 Sur 0 934.1 -- 55
2020-09-12 06:00:00 18.3 9 Sur 19 Sur 0 933.7 -- 55
2020-09-12 05:00:00 18.6 12 Sur 18 Sur 0 933.7 -- 54
2020-09-12 04:00:00 19.6 11 Sudeste 22 Sur 0 933.7 -- 52
2020-09-12 03:00:00 20.1 13 Sur 22 Sur 0 933.4 -- 53
2020-09-12 02:00:00 20.6 11 Sur 19 Sur 0 933.3 -- 53
2020-09-12 01:00:00 21 8 Sur 18 Sur 0 933 -- 50
2020-09-12 00:00:00 21.5 12 Sur 24 Sur 0 932.9 -- 49
2020-09-11 23:00:00 22.1 7 Sudeste 17 Nordeste 0 932.2 -- 33
2020-09-11 22:00:00 24.8 14 Nordeste 17 Nordeste 0 931.8 -- 28
2020-09-11 21:00:00 24.8 12 Nordeste 15 Nordeste 0 931.4 -- 28
2020-09-11 20:00:00 27.4 10 Norte 19 Norte 0 931.1 -- 24
2020-09-11 19:00:00 30.3 7 Noroeste 21 Nordeste 0 931 -- 22
2020-09-11 18:00:00 31.3 11 Nordeste 23 Norte 0 931.1 -- 21
2020-09-11 17:00:00 31.9 13 Noroeste 24 Norte 0 931.4 -- 19
2020-09-11 16:00:00 30.9 8 Noroeste 25 Norte 0 931.5 -- 21
2020-09-11 15:00:00 30.9 9 Norte 20 Oeste 0 932.1 -- 20
2020-09-11 14:00:00 29.3 7 Sur 15 Sudoeste 0 932.6 -- 24
2020-09-11 13:00:00 28.4 6 Sudoeste 17 Oeste 0 933.2 -- 30
2020-09-11 12:00:00 26.1 8 Sudoeste 16 Sudoeste 0 933.5 -- 41
2020-09-11 11:00:00 23.7 8 Sur 17 Sur 0 933.7 -- 52
2020-09-11 10:00:00 21.2 10 Sudoeste 18 Sur 0 933.5 -- 63
2020-09-11 09:00:00 17.9 7 Sudeste 15 Sudeste 0 933.4 -- 68
2020-09-11 08:00:00 14.2 6 Este 13 Sudeste 0 933 -- 78
2020-09-11 07:00:00 14.3 8 Este 15 Este 0 932.8 -- 78
2020-09-11 06:00:00 15.2 6 Sudeste 14 Sudeste 0 933 -- 75
2020-09-11 05:00:00 16.2 9 Sudeste 14 Sudeste 0 933 -- 71
2020-09-11 04:00:00 16.8 9 Sudeste 15 Sur 0 933.3 -- 68
2020-09-11 03:00:00 17.8 9 Sur 23 Sur 0 933.4 -- 69
2020-09-11 02:00:00 19 12 Sur 23 Sur 0 933.6 -- 66
2020-09-11 01:00:00 19.8 13 Sur 25 Sur 0 933.7 -- 68
2020-09-11 00:00:00 18.8 9 Sudeste 18 Sudeste 0 933.5 -- 47
2020-09-10 23:00:00 19.9 3 Sudeste 8 Este 0 933.2 -- 37
2020-09-10 22:00:00 22.4 3 Nordeste 10 Norte 0 933.2 -- 33
2020-09-10 21:00:00 24.5 6 Noroeste 9 Noroeste 0 932.9 -- 30
2020-09-10 20:00:00 27.8 6 Norte 21 Noroeste 0 932.8 -- 24
2020-09-10 19:00:00 29 9 Noroeste 27 Norte 0 932.8 -- 23
2020-09-10 18:00:00 29.7 14 Norte 24 Norte 0 933.1 -- 24
2020-09-10 17:00:00 29.2 12 Este 25 Nordeste 0 933.7 -- 25
2020-09-10 16:00:00 28.6 8 Sudeste 23 Nordeste 0 934.1 -- 28
2020-09-10 15:00:00 28.4 7 Sudeste 28 Nordeste 0 934.9 -- 28
2020-09-10 14:00:00 27.7 12 Nordeste 26 Nordeste 0 935.5 -- 31
2020-09-10 13:00:00 26.2 7 Noroeste 16 Noroeste 0 936.3 -- 37
2020-09-10 12:00:00 24.5 6 Sudoeste 17 Oeste 0 936.9 -- 45
2020-09-10 11:00:00 21.7 5 Sur 15 Sur 0 937.3 -- 56
2020-09-10 10:00:00 19 8 Sur 14 Sur 0 937 -- 65
2020-09-10 09:00:00 15.7 5 Sudeste 14 Sudeste 0 936.9 -- 73
2020-09-10 08:00:00 12.6 9 Sudeste 14 Este 0 936.5 -- 85
2020-09-10 07:00:00 12.2 6 Sudeste 9 Sudeste 0 935.9 -- 83
2020-09-10 06:00:00 12.9 4 Sudeste 10 Este 0 935.8 -- 81
2020-09-10 05:00:00 13.9 8 Sudeste 15 Sudeste 0 936.3 -- 81
2020-09-10 04:00:00 14.1 9 Este 14 Este 0 936.5 -- 76
2020-09-10 03:00:00 15.4 10 Sudeste 13 Este 0 936.7 -- 71
2020-09-10 02:00:00 16.8 6 Sur 12 Sur 0 936.9 -- 70
2020-09-10 01:00:00 18.1 8 Sudeste 14 Sudeste 0 937.1 -- 66
2020-09-10 00:00:00 19.2 8 Sur 15 Sudoeste 0 937.2 -- 61
2020-09-09 23:00:00 20.5 7 Sur 17 Sur 0 937.1 -- 52
2020-09-09 22:00:00 21.4 12 Nordeste 14 Nordeste 0 936.6 -- 32
2020-09-09 21:00:00 22.5 11 Nordeste 14 Nordeste 0 936.1 -- 30
2020-09-09 20:00:00 26.3 10 Nordeste 20 Nordeste 0 935.8 -- 24
2020-09-09 19:00:00 27.9 11 Nordeste 26 Este 0 935.8 -- 21
2020-09-09 18:00:00 28.2 10 Nordeste 30 Nordeste 0 935.8 -- 22
2020-09-09 17:00:00 28 14 Nordeste 29 Nordeste 0 936.1 -- 25
2020-09-09 16:00:00 27.3 10 Nordeste 22 Nordeste 0 936.6 -- 27
2020-09-09 15:00:00 26.4 6 Sur 16 Nordeste 0 937.1 -- 28
2020-09-09 14:00:00 26.1 4 Sudeste 17 Este 0 937.8 -- 29
2020-09-09 13:00:00 24.7 6 Oeste 18 Sur 0 938.5 -- 36
2020-09-09 12:00:00 23.2 8 Sur 19 Sudoeste 0 939.1 -- 41
2020-09-09 11:00:00 21 8 Sur 15 Sur 0 939.4 -- 49
2020-09-09 10:00:00 19.3 7 Sudoeste 13 Sudoeste 0 939.3 -- 58
2020-09-09 09:00:00 15 6 Sudeste 18 Este 0 939 -- 60
2020-09-09 08:00:00 11.7 10 Este 15 Este 0 938.8 -- 66
2020-09-09 07:00:00 11.7 8 Este 13 Este 0 938.3 -- 65
2020-09-09 06:00:00 12.6 8 Sudeste 13 Sur 0 938.1 -- 63
2020-09-09 05:00:00 14 6 Sudeste 11 Sur 0 938.3 -- 62
2020-09-09 04:00:00 15.1 8 Sur 25 Sudoeste 0 938.4 -- 64
2020-09-09 03:00:00 15.7 13 Sur 26 Sur 0 938.4 -- 57
2020-09-09 02:00:00 15.8 10 Sur 23 Sur 0 938.6 -- 50
2020-09-09 01:00:00 16.6 13 Sur 29 Sur 0 939 -- 49
2020-09-09 00:00:00 17.8 13 Sur 24 Sur 0 939.2 -- 45
2020-09-08 23:00:00 18.9 13 Sur 29 Sur 0 939 -- 43
2020-09-08 22:00:00 20 14 Sur 25 Sur 0 938.5 -- 42
2020-09-08 21:00:00 21.2 10 Sur 25 Sur 0 937.8 -- 36
2020-09-08 20:00:00 23 13 Sur 31 Sur 0 937.6 -- 30
2020-09-08 19:00:00 24 14 Sur 28 Sur 0 937.5 -- 29
2020-09-08 18:00:00 24.6 15 Sur 30 Sudoeste 0 937.4 -- 29
2020-09-08 17:00:00 23.8 12 Sudoeste 52 Sur 0 937.5 -- 30
2020-09-08 16:00:00 24.4 14 Sur 31 Sur 0 937.9 -- 29
2020-09-08 15:00:00 24.4 14 Sudoeste 28 Sur 0 938.2 -- 33
2020-09-08 14:00:00 22.7 16 Sudoeste 33 Sudoeste 0 938.7 -- 40
2020-09-08 13:00:00 21.4 19 Sur 36 Sur 0 939.1 -- 48
2020-09-08 12:00:00 20.9 18 Sur 36 Sur 0 939.5 -- 51
2020-09-08 11:00:00 19.1 19 Sur 36 Sur 0 939.6 -- 58
2020-09-08 10:00:00 17.3 17 Sur 35 Sur 0 939.5 -- 65
2020-09-08 09:00:00 15.2 19 Sur 36 Sur 0 939.6 -- 71
2020-09-08 08:00:00 12.9 10 Sudeste 18 Sudeste 0 938.9 -- 75
2020-09-08 07:00:00 13.2 9 Sudeste 21 Sudeste 0 938.3 -- 86
2020-09-08 06:00:00 13.9 12 Sur 23 Sur 0 938.2 -- 89
2020-09-08 05:00:00 13.9 12 Sur 18 Sur 0 938 -- 89
2020-09-08 04:00:00 14.3 8 Sur 18 Sur 0 937.7 -- 85
2020-09-08 03:00:00 14.7 10 Sur 21 Sur 0 938 -- 82
2020-09-08 02:00:00 15.5 13 Sur 27 Sur 0 938 -- 79
2020-09-08 01:00:00 15.9 14 Sur 28 Sur 0 938 -- 77
2020-09-08 00:00:00 16.6 17 Sur 33 Sur 0 938 -- 76
2020-09-07 23:00:00 17.5 16 Sur 36 Sudoeste 0 937.7 -- 70
2020-09-07 22:00:00 18.8 17 Sur 35 Sur 0 936.7 -- 64
2020-09-07 21:00:00 21.1 16 Sur 37 Sur 0 935.4 -- 52
2020-09-07 20:00:00 25.7 19 Nordeste 38 Nordeste 0 934.1 -- 18
2020-09-07 19:00:00 27.7 19 Nordeste 29 Nordeste 0 933.5 -- 17
2020-09-07 18:00:00 28.3 13 Nordeste 31 Nordeste 0 933.3 -- 13
2020-09-07 17:00:00 28.4 9 Norte 34 Nordeste 0 933.3 -- 14
2020-09-07 16:00:00 28.4 15 Nordeste 35 Nordeste 0 933.6 -- 17
2020-09-07 15:00:00 27.4 17 Norte 34 Nordeste 0 934 -- 21
2020-09-07 14:00:00 26.4 9 Norte 19 Noroeste 0 934.2 -- 27
2020-09-07 13:00:00 24 12 Sudeste 23 Sudeste 0 935 -- 45
2020-09-07 12:00:00 24 6 Oeste 17 Sudeste 0 935.1 -- 50
2020-09-07 11:00:00 22.2 6 Sudoeste 15 Sur 0 935.2 -- 55
2020-09-07 10:00:00 20.1 10 Sudeste 18 Sudeste 0 934.6 -- 60
2020-09-07 09:00:00 17.7 7 Sudeste 11 Sudeste 0 934.1 -- 73
2020-09-07 08:00:00 14.9 6 Este 10 Este 0 933.7 -- 84
2020-09-07 07:00:00 14.4 6 Sudeste 13 Este 0 933.2 -- 82
2020-09-07 06:00:00 15.3 9 Este 13 Este 0 933 -- 80
2020-09-07 05:00:00 16.3 6 Este 10 Este 0 932.9 -- 76
2020-09-07 04:00:00 17.9 5 Sudeste 15 Sur 0 933 -- 76
2020-09-07 03:00:00 18.9 10 Sur 18 Sur 0 933 -- 74
2020-09-07 02:00:00 19.6 12 Sudeste 20 Sudeste 0 933.5 -- 55
2020-09-07 01:00:00 21 13 Sudeste 30 Este 0 933.1 -- 49
2020-09-07 00:00:00 21.7 8 Sur 15 Sudoeste 0 932.5 -- 47
2020-09-06 23:00:00 22.6 10 Sudoeste 14 Sudoeste 0 932.5 -- 44
2020-09-06 22:00:00 24.9 11 Sudoeste 17 Oeste 0 932.2 -- 37
2020-09-06 21:00:00 26.6 12 Sudoeste 21 Oeste 0 931.8 -- 31
2020-09-06 20:00:00 29.3 9 Sudoeste 17 Oeste 0 931.7 -- 25
2020-09-06 19:00:00 30.8 10 Sudoeste 19 Sudoeste 0 931.8 -- 22
2020-09-06 18:00:00 31.6 4 Norte 18 Sur 0 931.8 -- 20
2020-09-06 17:00:00 31.5 9 Sudoeste 23 Sudoeste 0 932.4 -- 21
2020-09-06 16:00:00 30.9 9 Sudoeste 25 Sudoeste 0 933 -- 21
2020-09-06 15:00:00 30.1 15 Sudoeste 26 Oeste 0 933.6 -- 24
2020-09-06 14:00:00 28.7 14 Sur 31 Sudoeste 0 934.1 -- 24
2020-09-06 13:00:00 27.5 17 Sudoeste 35 Sudoeste 0 934.7 -- 26
2020-09-06 12:00:00 26.3 15 Sudoeste 30 Sudoeste 0 935.1 -- 28
2020-09-06 11:00:00 24.2 15 Sur 32 Sur 0 935.1 -- 37
2020-09-06 10:00:00 22.4 15 Sur 25 Sur 0 935 -- 44
2020-09-06 09:00:00 17.8 5 Sur 8 Sur 0 934.9 -- 64
2020-09-06 08:00:00 14.6 3 Sudeste 9 Sur 0 934.9 -- 73
2020-09-06 07:00:00 14.4 0 Calma 11 Sudeste 0 934.6 -- 72
2020-09-06 06:00:00 15.6 9 Sudeste 19 Sur 0 934.6 -- 72
2020-09-06 05:00:00 16.4 14 Sur 19 Sur 0 934.9 -- 71
2020-09-06 04:00:00 16.8 10 Sur 17 Sudeste 0 935.2 -- 69
2020-09-06 03:00:00 17.7 12 Sur 17 Sur 0 935.7 -- 66
2020-09-06 02:00:00 18.3 9 Sur 13 Sur 0 936 -- 58
2020-09-06 01:00:00 20.1 12 Sur 27 Sur 0 936 -- 55
2020-09-06 00:00:00 21.7 14 Sur 32 Sur 0 935.8 -- 45
2020-09-05 23:00:00 23.1 16 Sur 37 Sur 0 935.6 -- 42
2020-09-05 22:00:00 24.5 16 Sur 38 Sudoeste 0 935 -- 39
2020-09-05 21:00:00 26.6 7 Sur 17 Sudoeste 0 933.9 -- 26
2020-09-05 20:00:00 29.3 9 Sudoeste 21 Sudoeste 0 933.5 -- 22
2020-09-05 19:00:00 30.5 11 Sudoeste 22 Sudoeste 0 933.9 -- 22
2020-09-05 18:00:00 31.4 8 Sudoeste 20 Sudoeste 0 934.1 -- 21
2020-09-05 17:00:00 31.5 9 Sudeste 22 Oeste 0 934.3 -- 21
2020-09-05 16:00:00 31.1 11 Sur 22 Sur 0 935.2 -- 23
2020-09-05 15:00:00 30.6 7 Sudoeste 22 Sudoeste 0 936 -- 23
2020-09-05 14:00:00 29.4 12 Sudoeste 21 Oeste 0 936.4 -- 25
2020-09-05 13:00:00 27.7 9 Sudoeste 23 Sudoeste 0 937 -- 29
2020-09-05 12:00:00 25.1 12 Sur 25 Sur 0 937.6 -- 46
2020-09-05 11:00:00 23.1 12 Sudoeste 23 Sur 0 938 -- 58
2020-09-05 10:00:00 20.7 11 Sudoeste 21 Sur 0 938 -- 68
2020-09-05 09:00:00 17.7 13 Sur 18 Sur 0 938 -- 81
2020-09-05 08:00:00 15.1 12 Sur 15 Sudeste 0 937.8 -- 87
2020-09-05 07:00:00 14.8 11 Sur 17 Sur 0 937.6 -- 87
2020-09-05 06:00:00 15.2 11 Sur 15 Sur 0 937.9 -- 86
2020-09-05 05:00:00 15.9 12 Sur 19 Sur 0 938 -- 83
2020-09-05 04:00:00 16.6 11 Sudeste 23 Sur 0 938 -- 79
2020-09-05 03:00:00 17.7 13 Sur 24 Sur 0 938.3 -- 77
2020-09-05 02:00:00 18.7 12 Sur 26 Sur 0 938.8 -- 73
2020-09-05 01:00:00 19.8 14 Sur 30 Sur 0 939.2 -- 64
2020-09-05 00:00:00 21.1 14 Sur 26 Sur 0 939 -- 58
2020-09-04 23:00:00 22 9 Sur 16 Sur 0 938.8 -- 50
2020-09-04 22:00:00 23.1 8 Sur 17 Sur 0 938.6 -- 44
2020-09-04 21:00:00 25 10 Sudoeste 23 Sudoeste 0 938 -- 40
2020-09-04 20:00:00 27.1 14 Sudoeste 33 Sudoeste 0 937.6 -- 33
2020-09-04 19:00:00 28.2 15 Sudoeste 33 Sudoeste 0 937.9 -- 30
2020-09-04 18:00:00 28.8 15 Sudoeste 32 Sudoeste 0 938.2 -- 28
2020-09-04 17:00:00 28.9 18 Sudoeste 36 Sudoeste 0 938.4 -- 27
2020-09-04 16:00:00 28.5 16 Sudoeste 35 Sudoeste 0 938.9 -- 27
2020-09-04 15:00:00 28 15 Sudoeste 36 Sudoeste 0 940 -- 26
2020-09-04 14:00:00 26.3 18 Sudoeste 35 Sur 0 940.7 -- 31
2020-09-04 13:00:00 24.9 19 Sur 36 Sur 0 941.3 -- 34
2020-09-04 12:00:00 24 14 Sudoeste 30 Sudoeste 0 941.7 -- 38
2020-09-04 11:00:00 21.9 15 Sur 28 Sudoeste 0 941.8 -- 49
2020-09-04 10:00:00 20 16 Sudoeste 28 Sur 0 941.4 -- 62
2020-09-04 09:00:00 18.3 11 Sur 20 Sur 0 941 -- 66
2020-09-04 08:00:00 15.4 8 Sudeste 13 Sudeste 0 940.5 -- 77
2020-09-04 07:00:00 15 9 Sudeste 16 Sur 0 940.1 -- 76
2020-09-04 06:00:00 15.7 12 Sur 18 Sur 0 940.1 -- 74
2020-09-04 05:00:00 16.2 10 Sur 21 Sur 0 940 -- 73
2020-09-04 04:00:00 16.9 14 Sur 22 Sur 0 940.2 -- 69
2020-09-04 03:00:00 18.5 10 Sur 33 Sur 0 940.3 -- 68
2020-09-04 02:00:00 19.4 16 Sur 34 Sur 0 940.5 -- 65
2020-09-04 01:00:00 20.3 15 Sur 34 Sudoeste 0 940.5 -- 61
2020-09-04 00:00:00 21.3 17 Sur 37 Sudoeste 0 940.2 -- 57
2020-09-03 23:00:00 22.3 15 Sudoeste 26 Sur 0 939.7 -- 52
2020-09-03 22:00:00 23.1 9 Sudoeste 16 Sur 0 938.9 -- 38
2020-09-03 21:00:00 25.7 6 Sudoeste 16 Sudoeste 0 938.3 -- 31
2020-09-03 20:00:00 27.9 13 Sudoeste 25 Oeste 0 937.7 -- 27
2020-09-03 19:00:00 29.1 10 Sudoeste 24 Sudoeste 0 937.6 -- 22
2020-09-03 18:00:00 29.5 10 Sudoeste 26 Sudoeste 0 937.5 -- 22
2020-09-03 17:00:00 30.6 9 Noroeste 21 Sudoeste 0 937.5 -- 20
2020-09-03 16:00:00 29.7 13 Sur 22 Sudoeste 0 937.8 -- 23
2020-09-03 15:00:00 28.8 13 Sur 27 Sur 0 938.3 -- 23
2020-09-03 14:00:00 28.6 9 Sudoeste 23 Sur 0 938.4 -- 26
2020-09-03 13:00:00 26.4 13 Sudoeste 30 Sudoeste 0 938.8 -- 38
2020-09-03 12:00:00 24 15 Sudoeste 26 Sudoeste 0 939 -- 51
2020-09-03 11:00:00 21.7 12 Sudoeste 26 Sudoeste 0 939 -- 63
2020-09-03 10:00:00 19.9 16 Sur 27 Sur 0 938.5 -- 72
2020-09-03 09:00:00 17.5 15 Sur 23 Sur 0 938.1 -- 82
2020-09-03 08:00:00 15.8 8 Sur 18 Sur 0 937.8 -- 89
2020-09-03 07:00:00 16.1 10 Sur 21 Sur 0 937 -- 88
2020-09-03 06:00:00 16.3 13 Sur 24 Sur 0 936.9 -- 87
2020-09-03 05:00:00 16.5 8 Sur 24 Sudoeste 0 936.7 -- 86
2020-09-03 04:00:00 17.1 14 Sur 30 Sur 0 936.3 -- 84
2020-09-03 03:00:00 17.4 14 Sur 33 Sur 0 936.3 -- 82
2020-09-03 02:00:00 18.2 15 Sur 35 Sur 0 936.3 -- 71
2020-09-03 01:00:00 18.5 15 Sur 31 Sur 0 935.9 -- 69
2020-09-03 00:00:00 19.3 12 Sur 21 Sur 0 935.7 -- 66
2020-09-02 23:00:00 20.4 9 Sur 22 Sudoeste 0 935.3 -- 62
2020-09-02 22:00:00 22.1 14 Sudoeste 24 Oeste 0 934.6 -- 54
2020-09-02 21:00:00 24.6 2 Noroeste 4 Noroeste 0 933.8 -- 28
2020-09-02 20:00:00 27.7 2 Sur 9 Sudeste 0 933.2 -- 23
2020-09-02 19:00:00 28.2 4 Sudeste 9 Este 0 932.8 -- 23
2020-09-02 18:00:00 28 4 Este 14 Este 0 932.6 -- 23
2020-09-02 17:00:00 28 8 Sudeste 18 Este 0 932.5 -- 23
2020-09-02 16:00:00 28.6 6 Nordeste 18 Oeste 0 932.6 -- 23
2020-09-02 15:00:00 26.9 6 Sur 20 Oeste 0 932.9 -- 29
2020-09-02 14:00:00 27.4 9 Oeste 19 Sudoeste 0 933.3 -- 31
2020-09-02 13:00:00 25.4 11 Sudoeste 27 Sudoeste 0 933.6 -- 42
2020-09-02 12:00:00 24.1 13 Sur 25 Sur 0 933.8 -- 51
2020-09-02 11:00:00 22.2 14 Sudoeste 26 Sur 0 933.5 -- 57
2020-09-02 10:00:00 20.1 16 Sudoeste 27 Sudoeste 0 933.1 -- 59
2020-09-02 09:00:00 18 12 Sur 20 Sudeste 0 932.8 -- 74
2020-09-02 08:00:00 15 5 Sur 11 Sur 0 932.5 -- 86
2020-09-02 07:00:00 14.6 8 Sur 12 Sudeste 0 932 -- 87
2020-09-02 06:00:00 15.6 8 Sudeste 17 Sudeste 0 931.4 -- 85
2020-09-02 05:00:00 16.3 12 Sudeste 18 Sudeste 0 931.3 -- 84
2020-09-02 04:00:00 16.8 12 Sudeste 26 Sur 0 931.2 -- 82
2020-09-02 03:00:00 17.4 14 Sur 25 Sur 0 931 -- 80
2020-09-02 02:00:00 18.2 14 Sur 25 Sur 0 931 -- 76
2020-09-02 01:00:00 19.2 13 Sur 20 Sur 0 930.6 -- 56
2020-09-02 00:00:00 18.6 8 Este 12 Este 0 930.3 -- 36
2020-09-01 23:00:00 19.2 8 Este 12 Este 0 930.2 -- 34
2020-09-01 22:00:00 20.5 8 Este 14 Este 0 930.1 -- 30
2020-09-01 21:00:00 23 10 Nordeste 13 Nordeste 0 929.5 -- 24
2020-09-01 20:00:00 25.3 7 Nordeste 18 Nordeste 0 929.1 -- 20
2020-09-01 19:00:00 26.1 10 Nordeste 22 Nordeste 0 928.9 -- 17
2020-09-01 18:00:00 27.1 8 Norte 24 Nordeste 0 929.1 -- 17
2020-09-01 17:00:00 27.7 7 Norte 22 Nordeste 0 929.5 -- 14
2020-09-01 16:00:00 26.3 10 Norte 24 Noroeste 0 929.9 -- 19
2020-09-01 15:00:00 26.1 7 Oeste 16 Oeste 0 930.6 -- 22
2020-09-01 14:00:00 23.7 6 Noroeste 14 Oeste 0 931.1 -- 42
2020-09-01 13:00:00 22.5 6 Sudoeste 21 Sudoeste 0 931.4 -- 49
2020-09-01 12:00:00 20.1 13 Sudoeste 21 Sudoeste 0 931.5 -- 59
2020-09-01 11:00:00 19 5 Sur 14 Sudoeste 0 932.8 -- 66
2020-09-01 10:00:00 17.3 5 Sur 13 Sudoeste 0 932.5 -- 70
2020-09-01 09:00:00 15.3 6 Sur 14 Sudeste 0 932.4 -- 76
2020-09-01 08:00:00 13.8 7 Sudeste 12 Sudeste 0 932.4 -- 79
2020-09-01 07:00:00 12.6 7 Este 15 Este 0 932.1 -- 82
2020-09-01 06:00:00 12.5 10 Este 14 Este 0 932 -- 81
2020-09-01 05:00:00 13 10 Este 14 Sudeste 0 932.4 -- 82
2020-09-01 04:00:00 14.6 7 Sudeste 14 Sur 0 932.7 -- 80
2020-09-01 03:00:00 14.7 8 Sur 14 Sur 0 933.1 -- 75
2020-09-01 02:00:00 14.5 8 Sudeste 11 Sudeste 0 933.7 -- 57
2020-09-01 01:00:00 15.5 7 Sudeste -- -- 0 933.9 -- 47
2020-09-01 00:00:00 15.6 -- -- -- -- 0 933.8 -- 34
2020-08-31 23:00:00 16.8 8 Este 13 Sudeste 0 933.5 -- 31
2020-08-31 22:00:00 19.3 7 Este 15 Este 0 933.5 -- 25
2020-08-31 21:00:00 21.9 10 Nordeste -- -- 0 933 -- 18
2020-08-31 20:00:00 25.8 -- -- -- -- 0 932.8 -- 15
2020-08-31 19:00:00 26.6 10 Nordeste -- -- 0 933 -- 14
2020-08-31 18:00:00 27.3 3 Nordeste 21 Norte 0 933.4 -- 12
2020-08-31 17:00:00 26.4 9 Sur 18 Norte 0 933.6 -- 15
2020-08-31 16:00:00 26.4 9 Este 18 Oeste 0 934.2 -- 16
2020-08-31 15:00:00 25.7 10 Oeste -- -- 0 935 -- 19
2020-08-31 14:00:00 23.7 6 Sudeste 17 Oeste 0 935.7 -- 21
2020-08-31 13:00:00 23 8 Oeste 19 Sudoeste 0 936.2 -- 25
2020-08-31 12:00:00 20.9 11 Sudoeste 26 Oeste 0 936.6 -- 41
2020-08-31 11:00:00 19.4 13 Sudoeste 25 Sudoeste 0 936.6 -- 44
2020-08-31 10:00:00 18.2 9 Sur 22 Sur 0 936.4 -- 52
2020-08-31 09:00:00 13.5 9 Sudeste 13 Sudeste 0 936.2 -- 54
2020-08-31 08:00:00 10.9 5 Sur 10 Sur 0 936.2 -- 61
2020-08-31 07:00:00 10.1 6 Sudeste 17 Sudeste 0 935.5 -- 63
2020-08-31 06:00:00 11.1 8 Este 20 Sudeste 0 935 -- 60
2020-08-31 05:00:00 11.8 10 Este 18 Este 0 934.9 -- 58
2020-08-31 04:00:00 12.9 10 Este 18 Este 0 934.8 -- 55
2020-08-31 03:00:00 13.4 11 Este 19 Sudeste 0 934.8 -- 52
2020-08-31 02:00:00 13.9 9 Este 23 Sur 0 935 -- 49
2020-08-31 01:00:00 13.4 8 Este 21 Sudeste 0 934.9 -- 36
2020-08-31 00:00:00 14.1 8 Este 14 Este 0 934.2 -- 34
2020-08-30 23:00:00 15.7 8 Este 19 Nordeste 0 933.7 -- 31
2020-08-30 22:00:00 18.2 14 Nordeste 22 Este 0 932.8 -- 26
2020-08-30 21:00:00 19.2 11 Nordeste 19 Nordeste 0 931.8 -- 24
2020-08-30 20:00:00 22.8 10 Nordeste -- -- 0 931.1 -- 19
2020-08-30 19:00:00 23.9 14 Nordeste 31 Norte 0 930.6 -- 19
2020-08-30 18:00:00 24 11 Este -- -- 0 930.3 -- 19
2020-08-30 17:00:00 24.1 13 Nordeste -- -- 0 930.4 -- 20
2020-08-30 16:00:00 23.6 11 Este -- -- 0 930.6 -- 21
2020-08-30 15:00:00 23.2 -- -- -- -- 0 930.9 -- 22
2020-08-30 14:00:00 21.8 -- -- -- -- 0 931.3 -- 24
2020-08-30 13:00:00 21.4 12 Este -- -- 0 931.5 -- 26
2020-08-30 12:00:00 19.6 12 Este 23 Este 0 931.8 -- 30
2020-08-30 11:00:00 18.2 10 Este -- -- 0 931.7 -- 34
2020-08-30 10:00:00 16.2 10 Sudeste 21 Este 0 931.4 -- 40
2020-08-30 09:00:00 13.4 13 Este 22 Este 0 931.1 -- 52
2020-08-30 08:00:00 10.8 12 Este 20 Este 0 930.5 -- 64
2020-08-30 07:00:00 10.5 12 Este 23 Este 0 930.1 -- 67
2020-08-30 06:00:00 8.9 4 Sudeste -- -- 0 930 -- 65
2020-08-30 05:00:00 10.4 3 Este -- -- 0 930 -- 61
2020-08-30 04:00:00 11 -- -- -- -- 0 930 -- 56
2020-08-30 03:00:00 12 3 Nordeste 12 Nordeste 0 929.7 -- 54
2020-08-30 02:00:00 13 3 Este 12 Este 0 929.5 -- 50
2020-08-30 01:00:00 14.2 7 Este 26 Este 0 928.9 -- 47
2020-08-30 00:00:00 15.6 15 Este 25 Este 0 928.2 -- 42
2020-08-29 23:00:00 17.1 14 Este 44 Nordeste 0 927.5 -- 39
2020-08-29 22:00:00 18.9 25 Nordeste -- -- 0 926.8 -- 31
2020-08-29 21:00:00 20 16 Nordeste -- -- 0 925.8 -- 24
2020-08-29 20:00:00 22.2 25 Nordeste 44 Nordeste 0 925.2 -- 21
2020-08-29 19:00:00 23.4 30 Nordeste -- -- 0 924.9 -- 22
2020-08-29 18:00:00 24.4 27 Nordeste -- -- 0 924.5 -- 21
2020-08-29 17:00:00 24.7 27 Nordeste -- -- 0 924.1 -- 20
2020-08-29 16:00:00 24 -- -- -- -- 0 924 -- 19
2020-08-29 15:00:00 23.6 27 Nordeste 46 Nordeste 0 924.3 -- 22
2020-08-29 14:00:00 23.5 28 Nordeste 49 Nordeste 0 924.1 -- 26
2020-08-29 13:00:00 23.3 24 Este 39 Nordeste 0 923.8 -- 28
2020-08-29 12:00:00 23.2 18 Este 35 Nordeste 0 923.8 -- 34
2020-08-29 11:00:00 21.7 15 Este 29 Este 0 923.6 -- 46
2020-08-29 10:00:00 19.9 14 Este 26 Este 0 923.6 -- 52
2020-08-29 09:00:00 17.2 10 Este 14 Este 0 923.5 -- 62
2020-08-29 08:00:00 13.3 7 Norte 15 Norte 0 923 -- 51
2020-08-29 07:00:00 13.4 11 Norte 17 Norte 0 922.8 -- 47
2020-08-29 06:00:00 14 13 Norte 19 Norte 0 922.4 -- 44
2020-08-29 05:00:00 14.6 11 Norte 16 Noroeste 0 922.6 -- 41
2020-08-29 04:00:00 15.2 9 Noroeste 17 Norte 0 922.7 -- 35
2020-08-29 03:00:00 15.7 15 Norte 18 Norte 0 922.8 -- 36
2020-08-29 02:00:00 17.3 14 Norte 15 Norte 0 923.3 -- 33
2020-08-29 01:00:00 19.3 10 Norte 13 Norte 0 923.7 -- 30
2020-08-29 00:00:00 20.9 9 Norte 13 Norte 0 923.9 -- 31
2020-08-28 23:00:00 22.8 7 Nordeste 26 Norte 0 924 -- 22
2020-08-28 22:00:00 26.7 21 Norte 49 Norte 0 923.8 -- 17
2020-08-28 21:00:00 28.1 24 Norte 51 Norte 0 923.3 -- 28
2020-08-28 20:00:00 30.1 -- -- -- -- -- 922.8 -- 26
2020-08-28 19:00:00 31.9 36 Noroeste 54 Noroeste 0 922.8 -- 23
2020-08-28 18:00:00 33.5 26 Noroeste 51 Noroeste 0 922.8 -- 17
2020-08-28 17:00:00 33.9 31 Norte 50 Noroeste 0 923.5 -- 20
2020-08-28 16:00:00 33.4 25 Noroeste 44 Noroeste 0 924.3 -- 23
2020-08-28 15:00:00 33.2 26 Noroeste 46 Noroeste 0 925.2 -- 23
2020-08-28 14:00:00 32 22 Norte 38 Norte 0 926 -- 23
2020-08-28 13:00:00 30.7 22 Norte 39 Norte 0 927 -- 27
2020-08-28 12:00:00 28.8 23 Norte 34 Norte 0 927.4 -- 32
2020-08-28 11:00:00 26.8 17 Norte 27 Noroeste 0 927.5 -- 37
2020-08-28 10:00:00 22.6 12 Norte 19 Norte 0 927.6 -- 46
2020-08-28 09:00:00 20.3 6 Norte 11 Norte 0 927.7 -- 49
2020-08-28 08:00:00 16.5 6 Sudeste 9 Este 0 927.8 -- 62
2020-08-28 07:00:00 17 4 Sudeste 10 Norte 0 927.9 -- 53
2020-08-28 06:00:00 19 6 Noroeste 12 Sudoeste 0 928 -- 45
2020-08-28 05:00:00 21.4 10 Sudoeste 17 Sudoeste 0 928.3 -- 54
2020-08-28 04:00:00 21.9 6 Sur 14 Sudoeste 0 928.5 -- 58
2020-08-28 03:00:00 22.9 8 Sudoeste 18 Sudoeste 0 929.2 -- 46
2020-08-28 02:00:00 24.1 9 Sur 18 Sur 0 929.9 -- 41
2020-08-28 01:00:00 24.2 9 Sur 15 Sudoeste 0 930.4 -- 39
2020-08-28 00:00:00 25.1 5 Sur 14 Sudoeste 0 930.5 -- 36
2020-08-27 23:00:00 26.6 8 Sudoeste 16 Sudoeste 0 931 -- 25
2020-08-27 22:00:00 26.6 5 Sudeste 14 Este 0 931 -- 23
2020-08-27 21:00:00 30.4 8 Este 12 Este 0 930.9 -- 19
2020-08-27 20:00:00 34.8 9 Nordeste 19 Norte 0 931 -- 12
2020-08-27 19:00:00 36.2 14 Norte 22 Norte 0 931.6 -- 11
2020-08-27 18:00:00 36.8 6 Noroeste 31 Noroeste 0 932.2 -- 11
2020-08-27 17:00:00 36.7 15 Norte 32 Norte 0 933 -- 11
2020-08-27 16:00:00 36.6 12 Norte 28 Norte 0 933.5 -- 11
2020-08-27 15:00:00 35.8 9 Noroeste 27 Norte 0 934.1 -- 12
2020-08-27 14:00:00 35 16 Noroeste 25 Noroeste 0 934.8 -- 13
2020-08-27 13:00:00 33.7 11 Noroeste 24 Noroeste 0 935.4 -- 15
2020-08-27 12:00:00 31.2 10 Noroeste 20 Noroeste 0 935.9 -- 22
2020-08-27 11:00:00 28.7 12 Noroeste 18 Noroeste 0 936.1 -- 26
2020-08-27 10:00:00 25.7 2 Oeste 8 Sudeste 0 936 -- 40
2020-08-27 09:00:00 21.5 6 Sudeste 12 Este 0 936.1 -- 56
2020-08-27 08:00:00 17.2 10 Este 15 Este 0 935.9 -- 66
2020-08-27 07:00:00 16.6 12 Este 14 Este 0 935.8 -- 67
2020-08-27 06:00:00 17.4 10 Este 15 Este 0 935.7 -- 65
2020-08-27 05:00:00 19.3 10 Este 13 Este 0 936 -- 59
2020-08-27 04:00:00 19.7 7 Nordeste 16 Sudeste 0 936 -- 55
2020-08-27 03:00:00 21.4 8 Este 22 Noroeste 0 936.2 -- 50
2020-08-27 02:00:00 21.6 9 Este 18 Este 0 936.2 -- 44
2020-08-27 01:00:00 24.1 6 Sudeste 16 Sur 0 935.8 -- 46
2020-08-27 00:00:00 26.5 11 Sudoeste 19 Sudoeste 0 935.9 -- 41
2020-08-26 23:00:00 26.9 8 Sudoeste 15 Sudoeste 0 935.9 -- 29
2020-08-26 22:00:00 29.3 12 Nordeste 16 Nordeste 0 935.3 -- 20
2020-08-26 21:00:00 30.7 14 Nordeste 18 Norte 0 934.7 -- 19
2020-08-26 20:00:00 35 15 Norte 26 Nordeste 0 934.4 -- 15
2020-08-26 19:00:00 36.5 14 Norte 25 Norte 0 934.5 -- 14
2020-08-26 18:00:00 37.4 10 Noroeste 31 Noroeste 0 934.8 -- 15
2020-08-26 17:00:00 37.5 12 Noroeste 26 Noroeste 0 935.3 -- 13
2020-08-26 16:00:00 37.5 13 Noroeste 26 Noroeste 0 935.4 -- 15
2020-08-26 15:00:00 35.9 6 Norte 24 Norte 0 935.7 -- 16
2020-08-26 14:00:00 35.3 5 Sur 16 Oeste 0 936.1 -- 19
2020-08-26 13:00:00 33.8 7 Oeste 13 Oeste 0 936.7 -- 21
2020-08-26 12:00:00 31.2 4 Norte 13 Oeste 0 936.9 -- 28
2020-08-26 11:00:00 29.2 4 Oeste 14 Oeste 0 936.7 -- 31
2020-08-26 10:00:00 26.8 7 Sudoeste 15 Sudoeste 0 936.4 -- 42
2020-08-26 09:00:00 23 6 Sur 10 Sur 0 936.2 -- 59
2020-08-26 08:00:00 18.6 5 Este 10 Este 0 935.9 -- 71
2020-08-26 07:00:00 18.8 6 Este 12 Sudoeste 0 935.4 -- 70
2020-08-26 06:00:00 21.1 6 Sudoeste 14 Sur 0 935 -- 66
2020-08-26 05:00:00 21.2 8 Sur 13 Sur 0 934.9 -- 67
2020-08-26 04:00:00 22.6 9 Sur 16 Sur 0 935 -- 64
2020-08-26 03:00:00 23.2 6 Sur 17 Sur 0 935 -- 62
2020-08-26 02:00:00 24.2 8 Sur 16 Sur 0 934.9 -- 58
2020-08-26 01:00:00 24.9 8 Sur 15 Sur 0 934.7 -- 53
2020-08-26 00:00:00 25.6 4 Sur 15 Sudoeste 0 934.5 -- 45
2020-08-25 23:00:00 27.2 9 Sudoeste 18 Sudoeste 0 934.2 -- 38
2020-08-25 22:00:00 27.7 6 Este 8 Este 0 933.6 -- 26
2020-08-25 21:00:00 31.2 2 Este 12 Norte 0 932.7 -- 22
2020-08-25 20:00:00 34.8 8 Norte 18 Norte 0 932.4 -- 17
2020-08-25 19:00:00 35.8 10 Norte 26 Norte 0 932.4 -- 17
2020-08-25 18:00:00 36.2 13 Norte 27 Norte 0 932.6 -- 15
2020-08-25 17:00:00 36.2 12 Norte 31 Noroeste 0 932.9 -- 16
2020-08-25 16:00:00 35.8 7 Norte 24 Norte 0 933.1 -- 15
2020-08-25 15:00:00 35.1 7 Noroeste 24 Norte 0 933.6 -- 17
2020-08-25 14:00:00 34 8 Noroeste 20 Norte 0 934 -- 20
2020-08-25 13:00:00 32.2 8 Oeste 17 Noroeste 0 934.3 -- 25
2020-08-25 12:00:00 29.4 8 Noroeste 18 Oeste 0 934.6 -- 35
2020-08-25 11:00:00 26.4 9 Sudoeste 19 Oeste 0 934.6 -- 54
2020-08-25 10:00:00 23.3 10 Sudoeste 18 Sudoeste 0 934.5 -- 69
2020-08-25 09:00:00 21.2 10 Sur 18 Sudoeste 0 934.3 -- 81
2020-08-25 08:00:00 19.4 8 Sudoeste 19 Sur 0 934 -- 91
2020-08-25 07:00:00 19.2 12 Sur 22 Sur 0 933.4 -- 92
2020-08-25 06:00:00 19.7 10 Sur 26 Sur 0 933.3 -- 90
2020-08-25 05:00:00 20.3 12 Sur 26 Sur 0 933.4 -- 87
2020-08-25 04:00:00 21.1 13 Sur 29 Sudoeste 0 933.2 -- 82
2020-08-25 03:00:00 21.9 14 Sudoeste 27 Sur 0 933.1 -- 79
2020-08-25 02:00:00 22.5 15 Sur 25 Sudoeste 0 933.2 -- 76
2020-08-25 01:00:00 23.4 14 Sudoeste 28 Sudoeste 0 933.2 -- 70
2020-08-25 00:00:00 24.5 14 Sudoeste 30 Sudoeste 0 933.1 -- 64
2020-08-24 23:00:00 26.1 14 Sudoeste 26 Sur 0 932.9 -- 56
2020-08-24 22:00:00 27.9 13 Sudoeste 24 Sudoeste 0 932.6 -- 48
2020-08-24 21:00:00 29.4 6 Oeste 17 Norte 0 931.9 -- 20
2020-08-24 20:00:00 32.8 10 Norte 20 Noroeste 0 931.7 -- 16
2020-08-24 19:00:00 34.2 9 Noroeste 23 Norte 0 931.6 -- 16
2020-08-24 18:00:00 34.6 4 Noroeste 26 Oeste 0 932 -- 20
2020-08-24 17:00:00 33.9 8 Noroeste 26 Oeste 0 932.1 -- 24
2020-08-24 16:00:00 33.2 9 Sudoeste 24 Este 0 932.7 -- 25
2020-08-24 15:00:00 32 9 Sudeste 25 Sur 0 933.3 -- 28
2020-08-24 14:00:00 31 10 Sudoeste 36 Sudoeste 0 933.8 -- 33
2020-08-24 13:00:00 29.3 15 Sudoeste 32 Sur 0 934.3 -- 42
2020-08-24 12:00:00 27.8 15 Sudoeste 32 Sudoeste 0 935 -- 46
2020-08-24 11:00:00 26 18 Sudoeste 36 Sudoeste 0 935 -- 57
2020-08-24 10:00:00 24.4 18 Sudoeste 36 Sudoeste 0 934.9 -- 65
2020-08-24 09:00:00 22.4 19 Sudoeste 35 Sudoeste 0 934.6 -- 75
2020-08-24 08:00:00 20.6 11 Sur 21 Sur 0 934.4 -- 84
2020-08-24 07:00:00 20.1 10 Sudoeste 19 Sur 0 934.2 -- 86
2020-08-24 06:00:00 20.7 10 Sur 24 Sur 0 934.1 -- 84
2020-08-24 05:00:00 21.4 12 Sudoeste 29 Sur 0 934.2 -- 82
2020-08-24 04:00:00 22.1 13 Sur 26 Sur 0 934.3 -- 83
2020-08-24 03:00:00 22.2 16 Sur 28 Sur 0 934.4 -- 83
2020-08-24 02:00:00 22.5 17 Sur 33 Sur 0 934.7 -- 82
2020-08-24 01:00:00 23.6 18 Sudoeste 35 Sudoeste 0 934.7 -- 72
2020-08-24 00:00:00 24.5 19 Sudoeste 41 Sudoeste 0 934.5 -- 67
2020-08-23 23:00:00 25.8 19 Sudoeste 40 Sudoeste 0 934.5 -- 62
2020-08-23 22:00:00 27.3 15 Sur 34 Sudoeste 0 934.3 -- 59
2020-08-23 21:00:00 30 5 Sudeste 8 Sudeste 0 933.5 -- 27
2020-08-23 20:00:00 32.9 2 Sur 17 Este 0 933.6 -- 22
2020-08-23 19:00:00 33.6 8 Norte 23 Nordeste 0 933.5 -- 21
2020-08-23 18:00:00 33.6 6 Sudoeste 22 Noroeste 0 933.8 -- 24
2020-08-23 17:00:00 34.4 10 Oeste 26 Noroeste 0 934.6 -- 23
2020-08-23 16:00:00 32.8 7 Sudeste 26 Noroeste 0 935.1 -- 24
2020-08-23 15:00:00 32.3 6 Sur 18 Oeste 0 935.9 -- 27
2020-08-23 14:00:00 31 7 Oeste 23 Sudoeste 0 936.5 -- 39
2020-08-23 13:00:00 28.8 13 Sur 36 Sudoeste 0 937.2 -- 50
2020-08-23 12:00:00 27.6 15 Sudoeste 31 Sudoeste 0 937.5 -- 56
2020-08-23 11:00:00 26.3 17 Sudoeste 32 Sudoeste 0 937.6 -- 59
2020-08-23 10:00:00 24.9 16 Sudoeste 29 Sudoeste 0 937.4 -- 64
2020-08-23 09:00:00 23.3 13 Sur 24 Sur 0 937.5 -- 65
2020-08-23 08:00:00 19.1 6 Sudeste 10 Este 0 937.2 -- 77
2020-08-23 07:00:00 18.3 5 Sudeste 11 Este 0 937.1 -- 79
2020-08-23 06:00:00 19.1 5 Este 10 Este 0 937 -- 79
2020-08-23 05:00:00 19.9 8 Este 14 Este 0 937.1 -- 78
2020-08-23 04:00:00 20.9 9 Sudeste 14 Sudeste 0 937.2 -- 77
2020-08-23 03:00:00 21.9 9 Sudeste 17 Sudeste 0 937.2 -- 76
2020-08-23 02:00:00 23.4 12 Sudeste 19 Sudeste 0 937.5 -- 74
2020-08-23 01:00:00 24 10 Sur 22 Sur 0 937.1 -- 70
2020-08-23 00:00:00 24.6 9 Sudeste 14 Sudeste 0 937.2 -- 38
2020-08-22 23:00:00 25 7 Sudeste 18 Este 0 937.2 -- 41
2020-08-22 22:00:00 27.3 6 Este 14 Nordeste 0 936.5 -- 36
2020-08-22 21:00:00 29.4 10 Nordeste 20 Nordeste 0 936.1 -- 30
2020-08-22 20:00:00 33 10 Nordeste 26 Nordeste 0 936 -- 25
2020-08-22 19:00:00 33.3 17 Norte 34 Norte 0 936 -- 25
2020-08-22 18:00:00 33.7 13 Norte 32 Nordeste 0 936.2 -- 25
2020-08-22 17:00:00 33.7 16 Norte 34 Norte 0 936.7 -- 25
2020-08-22 16:00:00 33.6 17 Norte 34 Norte 0 937.2 -- 26
2020-08-22 15:00:00 32.4 14 Norte 28 Noroeste 0 937.8 -- 30
2020-08-22 14:00:00 31.2 13 Norte 29 Norte 0 938 -- 33
2020-08-22 13:00:00 30.5 11 Noroeste 22 Noroeste 0 938.4 -- 38
2020-08-22 12:00:00 29 8 Norte 18 Norte 0 938.7 -- 40
2020-08-22 11:00:00 27.1 7 Norte 13 Noroeste 0 938.7 -- 44
2020-08-22 10:00:00 24.3 6 Noroeste 14 Norte 0 938.5 -- 53
2020-08-22 09:00:00 20.9 9 Norte 12 Norte 0 938.2 -- 59
2020-08-22 08:00:00 19 8 Norte 11 Norte 0 937.6 -- 60
2020-08-22 07:00:00 18.5 6 Norte 11 Norte 0 937.1 -- 60
2020-08-22 06:00:00 18.8 11 Norte 12 Norte 0 936.7 -- 58
2020-08-22 05:00:00 19.4 11 Norte 13 Norte 0 936.6 -- 53
2020-08-22 04:00:00 19.5 8 Norte 10 Norte 0 936.4 -- 51
2020-08-22 03:00:00 20.5 3 Norte 12 Norte 0 936.4 -- 44
2020-08-22 02:00:00 20.9 9 Norte 12 Norte 0 936.2 -- 42
2020-08-22 01:00:00 22.3 3 Oeste 8 Sudoeste 0 935.7 -- 37
2020-08-22 00:00:00 23.6 4 Nordeste 14 Nordeste 0 935.3 -- 34
2020-08-21 23:00:00 24.4 9 Norte 14 Nordeste 0 935 -- 29
2020-08-21 22:00:00 26.4 6 Norte 12 Norte 0 934.4 -- 25
2020-08-21 21:00:00 29.3 9 Norte 25 Norte 0 933.4 -- 21
2020-08-21 20:00:00 33.1 18 Norte 33 Norte 0 932.7 -- 16
2020-08-21 19:00:00 34 23 Norte 39 Norte 0 932.7 -- 16
2020-08-21 18:00:00 34.7 21 Norte 44 Norte 0 932.9 -- 16
2020-08-21 17:00:00 34.5 21 Norte 47 Noroeste 0 933.1 -- 16
2020-08-21 16:00:00 33.8 22 Norte 39 Norte 0 933.3 -- 15
2020-08-21 15:00:00 33.1 15 Norte 42 Noroeste 0 933.7 -- 18
2020-08-21 14:00:00 32.6 15 Noroeste 36 Norte 0 933.5 -- 20
2020-08-21 13:00:00 31 13 Noroeste 26 Noroeste 0 933.8 -- 24
2020-08-21 12:00:00 28.5 8 Norte 17 Noroeste 0 933.9 -- 33
2020-08-21 11:00:00 27.1 6 Noroeste 14 Norte 0 933.6 -- 32
2020-08-21 10:00:00 24.1 9 Norte 14 Noroeste 0 933.3 -- 37
2020-08-21 09:00:00 21 4 Este 10 Este 0 932.9 -- 62
2020-08-21 08:00:00 16.4 6 Este 10 Este 0 932.4 -- 76
2020-08-21 07:00:00 15.9 6 Este 10 Este 0 931.7 -- 78
2020-08-21 06:00:00 16.5 8 Este 13 Este 0 931.4 -- 76
2020-08-21 05:00:00 17.1 7 Este 13 Este 0 931.2 -- 74
2020-08-21 04:00:00 18.1 6 Este 10 Este 0 931 -- 68
2020-08-21 03:00:00 20.7 4 Sudeste 11 Sur 0 930.8 -- 64
2020-08-21 02:00:00 22 5 Sur 12 Sudoeste 0 930.5 -- 58
2020-08-21 01:00:00 23.7 7 Sudoeste 20 Sudoeste 0 930 -- 51
2020-08-21 00:00:00 25.1 9 Sudoeste 24 Sudoeste 0 929.2 -- 45
2020-08-20 23:00:00 26.9 12 Sur 23 Sur 0 929 -- 38
2020-08-20 22:00:00 28.4 7 Sudoeste 14 Sudoeste 0 928.2 -- 27
2020-08-20 21:00:00 31.2 8 Sudoeste 26 Noroeste 0 927.3 -- 19
2020-08-20 20:00:00 35.2 18 Noroeste 34 Noroeste 0 926.7 -- 13
2020-08-20 19:00:00 36.8 21 Noroeste 35 Noroeste 0 926.5 -- 13
2020-08-20 18:00:00 37.8 23 Noroeste 37 Noroeste 0 926.5 -- 13
2020-08-20 17:00:00 36.1 12 Sudoeste 23 Sudoeste 0 926.8 -- 18
2020-08-20 16:00:00 35.5 9 Sudoeste 26 Noroeste 0 927.6 -- 18
2020-08-20 15:00:00 34.6 7 Sudoeste 27 Sudoeste 0 928.3 -- 18
2020-08-20 14:00:00 33.1 5 Sudoeste 18 Oeste 0 928.7 -- 21
2020-08-20 13:00:00 32.1 9 Sudoeste 24 Oeste 0 929 -- 22
2020-08-20 12:00:00 29.9 8 Sudoeste 18 Sudoeste 0 929.2 -- 26
2020-08-20 11:00:00 27.2 5 Sudoeste 11 Sudoeste 0 929.4 -- 32
2020-08-20 10:00:00 24.4 5 Sudoeste 10 Sudeste 0 929.1 -- 38
2020-08-20 09:00:00 20.8 6 Este 10 Este 0 929 -- 48
2020-08-20 08:00:00 16.5 5 Este 13 Este 0 928.8 -- 58
2020-08-20 07:00:00 15.7 7 Este 13 Este 0 928.2 -- 59
2020-08-20 06:00:00 16.1 10 Este 13 Este 0 927.9 -- 61
2020-08-20 05:00:00 17.1 6 Este 11 Este 0 927.7 -- 58
2020-08-20 04:00:00 18.5 4 Este 9 Este 0 927.5 -- 55
2020-08-20 03:00:00 19.6 6 Este 11 Sudeste 0 927.6 -- 52
2020-08-20 02:00:00 20.2 4 Este 12 Este 0 927.6 -- 51
2020-08-20 01:00:00 23 8 Este 14 Sudeste 0 927.6 -- 42
2020-08-20 00:00:00 24.6 7 Sudeste 23 Norte 0 927.7 -- 39